Huvudsida
METAR-TAF:

METAR-TAF

Flygplatser :

María Montez International Airport

Santa Cruz de Barahona, Dominikanska republiken

latitud: 18-12N, longitud: 071-06W, höjd: 3 m

Aktuellt väderrapport

Denna rapport gjordes för 9 timmar och 53 minuter sedan, klockan 00:00 UTC
Vind 10 kt från ost
Temperatur 27°C
Fuktighet 74%
Tryck 1018 hPa
Sikt 10 km eller mer
Få moln på en höjd av 1800 ft
Spridda moln på en höjd av 30000 ft

METAR: MDBH 150000Z 09010KT 9999 FEW018 SCT300 27/22 Q1018

Tid: 05:53 (09:53 UTC)

Väderprognos

Denna rapport gjordes för 5 timmar och 53 minuter sedan, klockan 04:00 UTC
Prognos gäller från 15 kl. 06 UTC till 16 kl. 06 UTC
Vind kt från nord
Sikt 10 km eller mer
Spridda moln på en höjd av 1800 ft
Sannolikhet 30%
från 15 kl. 06 UTC till 15 kl. 12 UTC
Sikt: 8000 m
Spridda moln på en höjd av 1800 ft
Brutna moln på en höjd av 7000 ft
(lätt) skurar

TAF: MDBH 150400Z 1506/1606 00000KT 9999 SCT018 PROB30 1506/1512 8000 -SH SCT018 BKN070

Aktuella väderrapporter och prognoser från 4000 flygplatser (METAR- och TAF-rapporter).

De tillgängliga stationerna syns som gula och röda prickar på kartan.

För musen över prickarna för att se namnen på stationerna.

Klicka sedan för att få väderrapporter och prognoser.

För att ändra kartan: Klicka på de gröna knapparna med ett svart kors på för att zooma in; den gröna knappen med ett streck på för att zooma ut; eller på de gröna pilarna för angränsande kartor.


METAR-TAF: